Terminal Aerodrome Forecast
Issued by NWS Duluth, MN

Home | Current Version | Previous Version | Text Only | Print | Product List | Glossary On
Versions: 1 2 3 4 5 6 7 8 9 10 11 12 13 14 15 16 17 18 19 20 21 22 23 24 25 26 27 28 29 30 31 32 33
000
FTUS43 KDLH 031700
TAFINL
TAF
KINL 031739Z 0318/0418 29017G25KT 4SM -SN BKN019 BKN026
     FM031900 30016G26KT 6SM BLSN BKN025
     FM040500 28012KT P6SM SCT025
     FM041400 29011KT 4SM -SN OVC025=

USA.gov is the U.S. government's official web portal to all federal, state and local government web resources and services.